sensor_id;sensor_type;location;lat;lon;timestamp;P1;durP1;ratioP1;P2;durP2;ratioP2
52274;SDS011;38228;50.940;4.024;2023-04-24T00:00:10;31.77;;;15.35;;
52274;SDS011;38228;50.940;4.024;2023-04-24T00:02:40;29.00;;;15.10;;
52274;SDS011;38228;50.940;4.024;2023-04-24T00:05:09;31.63;;;14.95;;
52274;SDS011;38228;50.940;4.024;2023-04-24T00:07:35;31.67;;;15.68;;
52274;SDS011;38228;50.940;4.024;2023-04-24T00:10:01;24.02;;;14.70;;
52274;SDS011;38228;50.940;4.024;2023-04-24T00:12:27;27.77;;;14.32;;
52274;SDS011;38228;50.940;4.024;2023-04-24T00:14:53;32.97;;;14.65;;
52274;SDS011;38228;50.940;4.024;2023-04-24T00:17:18;29.02;;;15.02;;
52274;SDS011;38228;50.940;4.024;2023-04-24T00:19:47;29.67;;;14.57;;
52274;SDS011;38228;50.940;4.024;2023-04-24T00:22:13;31.10;;;15.57;;
52274;SDS011;38228;50.940;4.024;2023-04-24T00:24:39;30.23;;;14.60;;
52274;SDS011;38228;50.940;4.024;2023-04-24T00:27:05;27.23;;;14.32;;
52274;SDS011;38228;50.940;4.024;2023-04-24T00:29:31;32.92;;;14.27;;
52274;SDS011;38228;50.940;4.024;2023-04-24T00:31:57;26.70;;;15.27;;
52274;SDS011;38228;50.940;4.024;2023-04-24T00:34:23;26.00;;;14.40;;
52274;SDS011;38228;50.940;4.024;2023-04-24T00:36:48;34.63;;;15.68;;
52274;SDS011;38228;50.940;4.024;2023-04-24T00:39:18;29.30;;;14.57;;
52274;SDS011;38228;50.940;4.024;2023-04-24T00:41:44;28.95;;;13.68;;
52274;SDS011;38228;50.940;4.024;2023-04-24T00:44:11;30.00;;;15.00;;
52274;SDS011;38228;50.940;4.024;2023-04-24T00:46:37;29.33;;;14.25;;
52274;SDS011;38228;50.940;4.024;2023-04-24T00:49:04;27.25;;;15.23;;
52274;SDS011;38228;50.940;4.024;2023-04-24T00:51:31;26.02;;;13.98;;
52274;SDS011;38228;50.940;4.024;2023-04-24T00:53:58;30.83;;;14.68;;
52274;SDS011;38228;50.940;4.024;2023-04-24T00:56:24;27.38;;;14.75;;
52274;SDS011;38228;50.940;4.024;2023-04-24T00:58:50;32.90;;;15.23;;
52274;SDS011;38228;50.940;4.024;2023-04-24T01:01:17;23.75;;;13.40;;
52274;SDS011;38228;50.940;4.024;2023-04-24T01:03:46;24.50;;;13.27;;
52274;SDS011;38228;50.940;4.024;2023-04-24T01:06:14;23.33;;;13.32;;
52274;SDS011;38228;50.940;4.024;2023-04-24T01:08:40;23.95;;;12.65;;
52274;SDS011;38228;50.940;4.024;2023-04-24T01:11:07;21.33;;;11.70;;
52274;SDS011;38228;50.940;4.024;2023-04-24T01:13:32;18.08;;;10.82;;
52274;SDS011;38228;50.940;4.024;2023-04-24T01:15:59;21.27;;;11.82;;
52274;SDS011;38228;50.940;4.024;2023-04-24T01:18:25;19.75;;;11.93;;
52274;SDS011;38228;50.940;4.024;2023-04-24T01:20:53;20.17;;;10.63;;
52274;SDS011;38228;50.940;4.024;2023-04-24T01:23:21;15.88;;;10.40;;
52274;SDS011;38228;50.940;4.024;2023-04-24T01:25:47;13.70;;;8.80;;
52274;SDS011;38228;50.940;4.024;2023-04-24T01:28:14;16.83;;;9.70;;
52274;SDS011;38228;50.940;4.024;2023-04-24T01:30:41;12.23;;;8.50;;
52274;SDS011;38228;50.940;4.024;2023-04-24T01:33:06;14.27;;;8.10;;
52274;SDS011;38228;50.940;4.024;2023-04-24T01:35:33;11.55;;;7.07;;
52274;SDS011;38228;50.940;4.024;2023-04-24T01:38:01;11.32;;;7.07;;
52274;SDS011;38228;50.940;4.024;2023-04-24T01:40:27;12.25;;;7.05;;
52274;SDS011;38228;50.940;4.024;2023-04-24T01:42:53;11.50;;;7.20;;
52274;SDS011;38228;50.940;4.024;2023-04-24T01:45:19;10.10;;;6.95;;
52274;SDS011;38228;50.940;4.024;2023-04-24T01:47:45;11.68;;;7.68;;
52274;SDS011;38228;50.940;4.024;2023-04-24T01:50:11;14.32;;;8.38;;
52274;SDS011;38228;50.940;4.024;2023-04-24T01:52:37;10.63;;;7.85;;
52274;SDS011;38228;50.940;4.024;2023-04-24T01:55:03;14.55;;;8.80;;
52274;SDS011;38228;50.940;4.024;2023-04-24T01:57:30;14.57;;;9.32;;
52274;SDS011;38228;50.940;4.024;2023-04-24T01:59:56;16.10;;;9.65;;
52274;SDS011;38228;50.940;4.024;2023-04-24T02:02:22;14.85;;;9.60;;
52274;SDS011;38228;50.940;4.024;2023-04-24T02:04:55;20.08;;;10.77;;
52274;SDS011;38228;50.940;4.024;2023-04-24T02:07:21;19.80;;;11.40;;
52274;SDS011;38228;50.940;4.024;2023-04-24T02:09:47;17.40;;;11.27;;
52274;SDS011;38228;50.940;4.024;2023-04-24T02:12:13;18.88;;;11.63;;
52274;SDS011;38228;50.940;4.024;2023-04-24T02:14:40;17.48;;;11.45;;
52274;SDS011;38228;50.940;4.024;2023-04-24T02:17:07;19.83;;;12.38;;
52274;SDS011;38228;50.940;4.024;2023-04-24T02:19:33;23.98;;;12.27;;
52274;SDS011;38228;50.940;4.024;2023-04-24T02:21:58;20.77;;;12.35;;
52274;SDS011;38228;50.940;4.024;2023-04-24T02:24:24;19.67;;;12.27;;
52274;SDS011;38228;50.940;4.024;2023-04-24T02:26:50;17.23;;;10.95;;
52274;SDS011;38228;50.940;4.024;2023-04-24T02:29:16;22.92;;;12.52;;
52274;SDS011;38228;50.940;4.024;2023-04-24T02:31:42;21.42;;;12.90;;
52274;SDS011;38228;50.940;4.024;2023-04-24T02:34:07;20.30;;;12.30;;
52274;SDS011;38228;50.940;4.024;2023-04-24T02:36:33;19.58;;;12.90;;
52274;SDS011;38228;50.940;4.024;2023-04-24T02:38:59;22.00;;;11.38;;
52274;SDS011;38228;50.940;4.024;2023-04-24T02:41:26;23.52;;;11.35;;
52274;SDS011;38228;50.940;4.024;2023-04-24T02:43:57;20.02;;;10.98;;
52274;SDS011;38228;50.940;4.024;2023-04-24T02:46:23;19.40;;;10.63;;
52274;SDS011;38228;50.940;4.024;2023-04-24T02:48:49;21.58;;;11.68;;
52274;SDS011;38228;50.940;4.024;2023-04-24T02:51:15;16.50;;;10.60;;
52274;SDS011;38228;50.940;4.024;2023-04-24T02:53:41;20.45;;;11.18;;
52274;SDS011;38228;50.940;4.024;2023-04-24T02:56:07;15.55;;;11.38;;
52274;SDS011;38228;50.940;4.024;2023-04-24T02:58:33;19.60;;;11.40;;
52274;SDS011;38228;50.940;4.024;2023-04-24T03:00:59;18.10;;;9.95;;
52274;SDS011;38228;50.940;4.024;2023-04-24T03:03:25;16.55;;;10.95;;
52274;SDS011;38228;50.940;4.024;2023-04-24T03:05:51;17.17;;;11.32;;
52274;SDS011;38228;50.940;4.024;2023-04-24T03:08:17;17.73;;;10.68;;
52274;SDS011;38228;50.940;4.024;2023-04-24T03:10:43;15.48;;;9.80;;
52274;SDS011;38228;50.940;4.024;2023-04-24T03:13:09;14.55;;;9.45;;
52274;SDS011;38228;50.940;4.024;2023-04-24T03:15:34;14.57;;;10.07;;
52274;SDS011;38228;50.940;4.024;2023-04-24T03:18:00;15.40;;;10.95;;
52274;SDS011;38228;50.940;4.024;2023-04-24T03:20:27;14.27;;;10.00;;
52274;SDS011;38228;50.940;4.024;2023-04-24T03:22:53;17.10;;;11.05;;
52274;SDS011;38228;50.940;4.024;2023-04-24T03:25:19;17.33;;;10.90;;
52274;SDS011;38228;50.940;4.024;2023-04-24T03:27:45;16.95;;;10.52;;
52274;SDS011;38228;50.940;4.024;2023-04-24T03:30:11;13.57;;;9.85;;
52274;SDS011;38228;50.940;4.024;2023-04-24T03:32:37;16.63;;;9.38;;
52274;SDS011;38228;50.940;4.024;2023-04-24T03:35:04;17.75;;;9.98;;
52274;SDS011;38228;50.940;4.024;2023-04-24T03:37:33;13.35;;;8.93;;
52274;SDS011;38228;50.940;4.024;2023-04-24T03:39:59;13.43;;;8.95;;
52274;SDS011;38228;50.940;4.024;2023-04-24T03:42:26;15.30;;;9.55;;
52274;SDS011;38228;50.940;4.024;2023-04-24T03:44:51;15.77;;;10.85;;
52274;SDS011;38228;50.940;4.024;2023-04-24T03:47:18;14.25;;;9.52;;
52274;SDS011;38228;50.940;4.024;2023-04-24T03:49:44;15.90;;;9.45;;
52274;SDS011;38228;50.940;4.024;2023-04-24T03:52:09;21.10;;;10.75;;
52274;SDS011;38228;50.940;4.024;2023-04-24T03:54:35;18.17;;;10.48;;
52274;SDS011;38228;50.940;4.024;2023-04-24T03:57:01;17.20;;;9.07;;
52274;SDS011;38228;50.940;4.024;2023-04-24T03:59:27;17.00;;;9.02;;
52274;SDS011;38228;50.940;4.024;2023-04-24T04:01:52;19.55;;;9.85;;
52274;SDS011;38228;50.940;4.024;2023-04-24T04:04:18;18.98;;;9.27;;
52274;SDS011;38228;50.940;4.024;2023-04-24T04:06:44;16.83;;;9.30;;
52274;SDS011;38228;50.940;4.024;2023-04-24T04:09:11;20.88;;;9.45;;
52274;SDS011;38228;50.940;4.024;2023-04-24T04:11:37;18.30;;;9.95;;
52274;SDS011;38228;50.940;4.024;2023-04-24T04:14:03;18.63;;;11.40;;
52274;SDS011;38228;50.940;4.024;2023-04-24T04:16:28;26.27;;;12.25;;
52274;SDS011;38228;50.940;4.024;2023-04-24T04:18:54;28.10;;;13.70;;
52274;SDS011;38228;50.940;4.024;2023-04-24T04:21:20;30.35;;;13.93;;
52274;SDS011;38228;50.940;4.024;2023-04-24T04:23:46;30.38;;;15.07;;
52274;SDS011;38228;50.940;4.024;2023-04-24T04:26:13;34.70;;;16.67;;
52274;SDS011;38228;50.940;4.024;2023-04-24T04:28:39;30.42;;;16.50;;
52274;SDS011;38228;50.940;4.024;2023-04-24T04:31:05;30.02;;;16.80;;
52274;SDS011;38228;50.940;4.024;2023-04-24T04:33:32;30.88;;;16.48;;
52274;SDS011;38228;50.940;4.024;2023-04-24T04:35:58;35.78;;;17.17;;
52274;SDS011;38228;50.940;4.024;2023-04-24T04:38:25;29.27;;;16.67;;
52274;SDS011;38228;50.940;4.024;2023-04-24T04:40:55;37.60;;;17.80;;
52274;SDS011;38228;50.940;4.024;2023-04-24T04:43:23;40.47;;;18.25;;
52274;SDS011;38228;50.940;4.024;2023-04-24T04:45:50;32.90;;;17.48;;
52274;SDS011;38228;50.940;4.024;2023-04-24T04:48:16;39.08;;;18.05;;
52274;SDS011;38228;50.940;4.024;2023-04-24T04:50:43;37.63;;;18.60;;
52274;SDS011;38228;50.940;4.024;2023-04-24T04:53:09;40.50;;;19.15;;
52274;SDS011;38228;50.940;4.024;2023-04-24T04:55:36;39.47;;;18.15;;
52274;SDS011;38228;50.940;4.024;2023-04-24T04:58:02;34.08;;;17.33;;
52274;SDS011;38228;50.940;4.024;2023-04-24T05:00:28;35.05;;;16.67;;
52274;SDS011;38228;50.940;4.024;2023-04-24T05:03:00;34.15;;;17.38;;
52274;SDS011;38228;50.940;4.024;2023-04-24T05:05:26;33.45;;;16.48;;
52274;SDS011;38228;50.940;4.024;2023-04-24T05:07:52;31.65;;;17.35;;
52274;SDS011;38228;50.940;4.024;2023-04-24T05:10:18;28.35;;;16.40;;
52274;SDS011;38228;50.940;4.024;2023-04-24T05:12:44;34.03;;;17.25;;
52274;SDS011;38228;50.940;4.024;2023-04-24T05:15:10;30.73;;;16.58;;
52274;SDS011;38228;50.940;4.024;2023-04-24T05:17:36;38.78;;;17.90;;
52274;SDS011;38228;50.940;4.024;2023-04-24T05:20:02;28.92;;;17.15;;
52274;SDS011;38228;50.940;4.024;2023-04-24T05:22:32;35.33;;;16.02;;
52274;SDS011;38228;50.940;4.024;2023-04-24T05:24:58;32.17;;;17.20;;
52274;SDS011;38228;50.940;4.024;2023-04-24T05:27:24;34.33;;;16.30;;
52274;SDS011;38228;50.940;4.024;2023-04-24T05:29:50;33.15;;;16.60;;
52274;SDS011;38228;50.940;4.024;2023-04-24T05:32:16;30.05;;;15.63;;
52274;SDS011;38228;50.940;4.024;2023-04-24T05:34:44;38.50;;;18.27;;
52274;SDS011;38228;50.940;4.024;2023-04-24T05:37:10;33.80;;;17.67;;
52274;SDS011;38228;50.940;4.024;2023-04-24T05:39:36;33.47;;;17.92;;
52274;SDS011;38228;50.940;4.024;2023-04-24T05:42:02;32.80;;;16.63;;
52274;SDS011;38228;50.940;4.024;2023-04-24T05:44:29;36.30;;;17.15;;
52274;SDS011;38228;50.940;4.024;2023-04-24T05:46:55;31.10;;;16.33;;
52274;SDS011;38228;50.940;4.024;2023-04-24T05:49:21;32.97;;;17.10;;
52274;SDS011;38228;50.940;4.024;2023-04-24T05:51:48;34.63;;;16.42;;
52274;SDS011;38228;50.940;4.024;2023-04-24T05:54:14;33.05;;;18.08;;
52274;SDS011;38228;50.940;4.024;2023-04-24T05:56:40;33.28;;;16.35;;
52274;SDS011;38228;50.940;4.024;2023-04-24T05:59:06;34.22;;;18.15;;
52274;SDS011;38228;50.940;4.024;2023-04-24T06:01:33;35.25;;;17.98;;
52274;SDS011;38228;50.940;4.024;2023-04-24T06:03:59;39.75;;;19.65;;
52274;SDS011;38228;50.940;4.024;2023-04-24T06:06:25;38.42;;;18.30;;
52274;SDS011;38228;50.940;4.024;2023-04-24T06:08:52;38.58;;;19.83;;
52274;SDS011;38228;50.940;4.024;2023-04-24T06:11:18;46.45;;;23.33;;
52274;SDS011;38228;50.940;4.024;2023-04-24T06:13:44;34.42;;;19.25;;
52274;SDS011;38228;50.940;4.024;2023-04-24T06:16:10;42.92;;;19.33;;
52274;SDS011;38228;50.940;4.024;2023-04-24T06:18:36;36.47;;;18.85;;
52274;SDS011;38228;50.940;4.024;2023-04-24T06:21:02;39.65;;;20.02;;
52274;SDS011;38228;50.940;4.024;2023-04-24T06:23:28;37.50;;;19.88;;
52274;SDS011;38228;50.940;4.024;2023-04-24T06:25:57;38.78;;;20.10;;
52274;SDS011;38228;50.940;4.024;2023-04-24T06:28:23;42.17;;;21.65;;
52274;SDS011;38228;50.940;4.024;2023-04-24T06:30:49;50.15;;;21.88;;
52274;SDS011;38228;50.940;4.024;2023-04-24T06:33:15;50.70;;;20.35;;
52274;SDS011;38228;50.940;4.024;2023-04-24T06:35:41;45.22;;;20.40;;
52274;SDS011;38228;50.940;4.024;2023-04-24T06:38:07;41.85;;;21.40;;
52274;SDS011;38228;50.940;4.024;2023-04-24T06:40:33;47.65;;;21.50;;
52274;SDS011;38228;50.940;4.024;2023-04-24T06:42:59;46.50;;;21.60;;
52274;SDS011;38228;50.940;4.024;2023-04-24T06:45:27;44.85;;;21.27;;
52274;SDS011;38228;50.940;4.024;2023-04-24T06:47:54;46.30;;;21.10;;
52274;SDS011;38228;50.940;4.024;2023-04-24T06:50:19;50.25;;;21.17;;
52274;SDS011;38228;50.940;4.024;2023-04-24T06:52:45;45.90;;;21.98;;
52274;SDS011;38228;50.940;4.024;2023-04-24T06:55:11;41.38;;;20.52;;
52274;SDS011;38228;50.940;4.024;2023-04-24T06:57:37;43.60;;;19.00;;
52274;SDS011;38228;50.940;4.024;2023-04-24T07:00:03;40.80;;;18.55;;
52274;SDS011;38228;50.940;4.024;2023-04-24T07:02:30;36.30;;;17.05;;
52274;SDS011;38228;50.940;4.024;2023-04-24T07:04:56;36.00;;;17.70;;
52274;SDS011;38228;50.940;4.024;2023-04-24T07:07:22;40.92;;;17.38;;
52274;SDS011;38228;50.940;4.024;2023-04-24T07:09:48;36.67;;;17.98;;
52274;SDS011;38228;50.940;4.024;2023-04-24T07:12:15;36.40;;;18.52;;
52274;SDS011;38228;50.940;4.024;2023-04-24T07:14:42;38.00;;;18.38;;
52274;SDS011;38228;50.940;4.024;2023-04-24T07:17:08;43.90;;;18.10;;
52274;SDS011;38228;50.940;4.024;2023-04-24T07:19:34;41.97;;;20.02;;
52274;SDS011;38228;50.940;4.024;2023-04-24T07:22:00;55.47;;;22.13;;
52274;SDS011;38228;50.940;4.024;2023-04-24T07:24:27;46.08;;;19.10;;
52274;SDS011;38228;50.940;4.024;2023-04-24T07:26:53;41.05;;;19.70;;
52274;SDS011;38228;50.940;4.024;2023-04-24T07:29:19;42.38;;;18.27;;
52274;SDS011;38228;50.940;4.024;2023-04-24T07:31:46;39.42;;;17.25;;
52274;SDS011;38228;50.940;4.024;2023-04-24T07:34:12;36.03;;;15.73;;
52274;SDS011;38228;50.940;4.024;2023-04-24T07:36:38;28.00;;;13.50;;
52274;SDS011;38228;50.940;4.024;2023-04-24T07:39:04;27.63;;;12.35;;
52274;SDS011;38228;50.940;4.024;2023-04-24T07:41:31;36.03;;;12.45;;
52274;SDS011;38228;50.940;4.024;2023-04-24T07:43:57;33.22;;;11.35;;
52274;SDS011;38228;50.940;4.024;2023-04-24T07:46:23;29.85;;;12.65;;
52274;SDS011;38228;50.940;4.024;2023-04-24T07:48:54;32.42;;;11.95;;
52274;SDS011;38228;50.940;4.024;2023-04-24T07:51:20;27.27;;;11.82;;
52274;SDS011;38228;50.940;4.024;2023-04-24T07:53:46;27.98;;;11.95;;
52274;SDS011;38228;50.940;4.024;2023-04-24T07:56:12;29.10;;;10.27;;
52274;SDS011;38228;50.940;4.024;2023-04-24T07:58:38;28.60;;;11.07;;
52274;SDS011;38228;50.940;4.024;2023-04-24T08:01:04;22.42;;;10.07;;
52274;SDS011;38228;50.940;4.024;2023-04-24T08:03:30;27.08;;;11.07;;
52274;SDS011;38228;50.940;4.024;2023-04-24T08:05:55;25.40;;;10.40;;
52274;SDS011;38228;50.940;4.024;2023-04-24T08:08:23;29.67;;;11.40;;
52274;SDS011;38228;50.940;4.024;2023-04-24T08:10:49;26.98;;;9.90;;
52274;SDS011;38228;50.940;4.024;2023-04-24T08:13:15;28.98;;;10.00;;
52274;SDS011;38228;50.940;4.024;2023-04-24T08:15:41;28.48;;;10.63;;
52274;SDS011;38228;50.940;4.024;2023-04-24T08:18:07;32.35;;;9.65;;
52274;SDS011;38228;50.940;4.024;2023-04-24T08:20:33;23.83;;;8.93;;
52274;SDS011;38228;50.940;4.024;2023-04-24T08:22:59;22.88;;;9.05;;
52274;SDS011;38228;50.940;4.024;2023-04-24T08:25:24;19.30;;;7.72;;
52274;SDS011;38228;50.940;4.024;2023-04-24T08:27:50;27.75;;;8.30;;
52274;SDS011;38228;50.940;4.024;2023-04-24T08:30:17;19.70;;;7.82;;
52274;SDS011;38228;50.940;4.024;2023-04-24T08:32:43;16.48;;;7.47;;
52274;SDS011;38228;50.940;4.024;2023-04-24T08:35:09;19.60;;;8.35;;
52274;SDS011;38228;50.940;4.024;2023-04-24T08:37:35;23.00;;;7.38;;
52274;SDS011;38228;50.940;4.024;2023-04-24T08:40:01;20.05;;;7.03;;
52274;SDS011;38228;50.940;4.024;2023-04-24T08:45:02;15.65;;;5.32;;
52274;SDS011;38228;50.940;4.024;2023-04-24T08:47:28;16.15;;;5.35;;
52274;SDS011;38228;50.940;4.024;2023-04-24T08:49:55;15.48;;;4.85;;
52274;SDS011;38228;50.940;4.024;2023-04-24T08:52:22;16.35;;;4.65;;
52274;SDS011;38228;50.940;4.024;2023-04-24T08:54:48;14.50;;;5.03;;
52274;SDS011;38228;50.940;4.024;2023-04-24T08:57:14;16.08;;;5.40;;
52274;SDS011;38228;50.940;4.024;2023-04-24T08:59:40;11.07;;;4.35;;
52274;SDS011;38228;50.940;4.024;2023-04-24T09:02:10;16.63;;;5.10;;
52274;SDS011;38228;50.940;4.024;2023-04-24T09:04:37;10.75;;;4.22;;
52274;SDS011;38228;50.940;4.024;2023-04-24T09:07:03;11.50;;;5.00;;
52274;SDS011;38228;50.940;4.024;2023-04-24T09:09:32;15.63;;;5.20;;
52274;SDS011;38228;50.940;4.024;2023-04-24T09:12:00;15.70;;;5.07;;
52274;SDS011;38228;50.940;4.024;2023-04-24T09:14:27;11.82;;;4.28;;
52274;SDS011;38228;50.940;4.024;2023-04-24T09:16:53;11.20;;;4.07;;
52274;SDS011;38228;50.940;4.024;2023-04-24T09:19:19;13.13;;;4.60;;
52274;SDS011;38228;50.940;4.024;2023-04-24T09:21:46;12.57;;;4.68;;
52274;SDS011;38228;50.940;4.024;2023-04-24T09:24:21;9.55;;;4.40;;
52274;SDS011;38228;50.940;4.024;2023-04-24T09:26:56;11.13;;;4.03;;
52274;SDS011;38228;50.940;4.024;2023-04-24T09:29:33;14.38;;;4.75;;
52274;SDS011;38228;50.940;4.024;2023-04-24T09:31:58;11.93;;;3.95;;
52274;SDS011;38228;50.940;4.024;2023-04-24T09:34:42;11.52;;;4.07;;
52274;SDS011;38228;50.940;4.024;2023-04-24T09:37:09;9.02;;;3.90;;
52274;SDS011;38228;50.940;4.024;2023-04-24T09:39:34;14.60;;;4.43;;
52274;SDS011;38228;50.940;4.024;2023-04-24T09:42:00;9.80;;;4.15;;
52274;SDS011;38228;50.940;4.024;2023-04-24T09:44:27;8.10;;;3.42;;
52274;SDS011;38228;50.940;4.024;2023-04-24T09:46:55;10.05;;;4.10;;
52274;SDS011;38228;50.940;4.024;2023-04-24T09:49:23;13.40;;;4.30;;
52274;SDS011;38228;50.940;4.024;2023-04-24T09:51:50;10.60;;;4.20;;
52274;SDS011;38228;50.940;4.024;2023-04-24T09:54:17;11.30;;;4.30;;
52274;SDS011;38228;50.940;4.024;2023-04-24T09:56:48;11.05;;;4.13;;
52274;SDS011;38228;50.940;4.024;2023-04-24T09:59:15;10.23;;;4.45;;
52274;SDS011;38228;50.940;4.024;2023-04-24T10:01:43;9.75;;;4.20;;
52274;SDS011;38228;50.940;4.024;2023-04-24T10:04:23;10.68;;;4.80;;
52274;SDS011;38228;50.940;4.024;2023-04-24T10:06:55;16.73;;;4.82;;
52274;SDS011;38228;50.940;4.024;2023-04-24T10:09:23;9.13;;;3.97;;
52274;SDS011;38228;50.940;4.024;2023-04-24T10:11:50;11.23;;;4.78;;
52274;SDS011;38228;50.940;4.024;2023-04-24T10:14:19;12.13;;;5.35;;
52274;SDS011;38228;50.940;4.024;2023-04-24T10:16:47;11.57;;;4.65;;
52274;SDS011;38228;50.940;4.024;2023-04-24T10:19:14;10.65;;;4.72;;
52274;SDS011;38228;50.940;4.024;2023-04-24T10:21:41;10.80;;;4.20;;
52274;SDS011;38228;50.940;4.024;2023-04-24T10:24:12;10.20;;;4.55;;
52274;SDS011;38228;50.940;4.024;2023-04-24T10:26:46;9.95;;;4.25;;
52274;SDS011;38228;50.940;4.024;2023-04-24T10:29:14;12.75;;;4.57;;
52274;SDS011;38228;50.940;4.024;2023-04-24T10:31:41;11.25;;;4.53;;
52274;SDS011;38228;50.940;4.024;2023-04-24T10:34:10;8.77;;;4.05;;
52274;SDS011;38228;50.940;4.024;2023-04-24T10:36:41;9.88;;;4.18;;
52274;SDS011;38228;50.940;4.024;2023-04-24T10:39:11;9.93;;;4.28;;
52274;SDS011;38228;50.940;4.024;2023-04-24T10:41:38;18.35;;;5.00;;
52274;SDS011;38228;50.940;4.024;2023-04-24T10:44:11;11.55;;;4.25;;
52274;SDS011;38228;50.940;4.024;2023-04-24T10:46:39;10.70;;;4.47;;
52274;SDS011;38228;50.940;4.024;2023-04-24T10:49:08;7.93;;;4.35;;
52274;SDS011;38228;50.940;4.024;2023-04-24T10:59:44;13.45;;;4.70;;
52274;SDS011;38228;50.940;4.024;2023-04-24T11:02:10;10.43;;;4.90;;
52274;SDS011;38228;50.940;4.024;2023-04-24T11:04:40;15.68;;;5.45;;
52274;SDS011;38228;50.940;4.024;2023-04-24T11:07:07;12.85;;;5.38;;
52274;SDS011;38228;50.940;4.024;2023-04-24T11:09:35;9.18;;;4.78;;
52274;SDS011;38228;50.940;4.024;2023-04-24T11:12:08;15.45;;;6.00;;
52274;SDS011;38228;50.940;4.024;2023-04-24T11:20:09;9.88;;;4.70;;
52274;SDS011;38228;50.940;4.024;2023-04-24T11:22:39;10.27;;;4.70;;
52274;SDS011;38228;50.940;4.024;2023-04-24T11:25:06;10.77;;;4.97;;
52274;SDS011;38228;50.940;4.024;2023-04-24T11:27:40;12.93;;;5.22;;
52274;SDS011;38228;50.940;4.024;2023-04-24T11:30:08;12.40;;;5.05;;
52274;SDS011;38228;50.940;4.024;2023-04-24T11:32:42;14.55;;;5.90;;
52274;SDS011;38228;50.940;4.024;2023-04-24T11:35:13;11.68;;;6.10;;
52274;SDS011;38228;50.940;4.024;2023-04-24T11:37:42;15.38;;;5.47;;
52274;SDS011;38228;50.940;4.024;2023-04-24T11:40:16;12.38;;;5.65;;
52274;SDS011;38228;50.940;4.024;2023-04-24T11:42:48;13.50;;;5.80;;
52274;SDS011;38228;50.940;4.024;2023-04-24T11:47:44;14.40;;;6.30;;
52274;SDS011;38228;50.940;4.024;2023-04-24T11:50:11;10.07;;;5.72;;
52274;SDS011;38228;50.940;4.024;2023-04-24T11:52:43;9.90;;;5.60;;
52274;SDS011;38228;50.940;4.024;2023-04-24T11:57:43;11.70;;;4.68;;
52274;SDS011;38228;50.940;4.024;2023-04-24T12:00:15;10.48;;;5.35;;
52274;SDS011;38228;50.940;4.024;2023-04-24T12:02:49;13.85;;;6.60;;
52274;SDS011;38228;50.940;4.024;2023-04-24T12:05:21;11.82;;;5.55;;
52274;SDS011;38228;50.940;4.024;2023-04-24T12:07:48;11.75;;;5.32;;
52274;SDS011;38228;50.940;4.024;2023-04-24T12:10:19;14.10;;;6.60;;
52274;SDS011;38228;50.940;4.024;2023-04-24T12:12:52;10.98;;;5.03;;
52274;SDS011;38228;50.940;4.024;2023-04-24T12:15:20;15.57;;;7.22;;
52274;SDS011;38228;50.940;4.024;2023-04-24T12:17:46;13.88;;;5.32;;
52274;SDS011;38228;50.940;4.024;2023-04-24T12:20:13;14.48;;;6.10;;
52274;SDS011;38228;50.940;4.024;2023-04-24T12:22:43;10.43;;;4.30;;
52274;SDS011;38228;50.940;4.024;2023-04-24T12:25:11;11.80;;;4.85;;
52274;SDS011;38228;50.940;4.024;2023-04-24T12:27:37;10.20;;;4.07;;
52274;SDS011;38228;50.940;4.024;2023-04-24T12:30:03;8.07;;;3.63;;
52274;SDS011;38228;50.940;4.024;2023-04-24T12:32:30;7.40;;;3.25;;
52274;SDS011;38228;50.940;4.024;2023-04-24T12:34:57;5.65;;;2.97;;
52274;SDS011;38228;50.940;4.024;2023-04-24T12:37:24;9.10;;;3.00;;
52274;SDS011;38228;50.940;4.024;2023-04-24T12:40:00;6.22;;;3.25;;
52274;SDS011;38228;50.940;4.024;2023-04-24T12:42:33;7.82;;;3.30;;
52274;SDS011;38228;50.940;4.024;2023-04-24T12:45:03;8.88;;;3.83;;
52274;SDS011;38228;50.940;4.024;2023-04-24T12:47:31;11.23;;;4.47;;
52274;SDS011;38228;50.940;4.024;2023-04-24T12:50:01;6.30;;;3.38;;
52274;SDS011;38228;50.940;4.024;2023-04-24T12:52:27;5.38;;;2.80;;
52274;SDS011;38228;50.940;4.024;2023-04-24T12:54:55;11.43;;;2.97;;
52274;SDS011;38228;50.940;4.024;2023-04-24T12:57:26;4.00;;;2.30;;
52274;SDS011;38228;50.940;4.024;2023-04-24T12:59:54;6.25;;;2.63;;
52274;SDS011;38228;50.940;4.024;2023-04-24T13:02:21;8.82;;;3.40;;
52274;SDS011;38228;50.940;4.024;2023-04-24T13:04:51;7.13;;;3.10;;
52274;SDS011;38228;50.940;4.024;2023-04-24T13:07:17;9.38;;;2.75;;
52274;SDS011;38228;50.940;4.024;2023-04-24T13:09:43;6.70;;;2.53;;
52274;SDS011;38228;50.940;4.024;2023-04-24T13:12:11;7.45;;;2.80;;
52274;SDS011;38228;50.940;4.024;2023-04-24T13:14:37;4.43;;;1.90;;
52274;SDS011;38228;50.940;4.024;2023-04-24T13:17:03;11.07;;;4.15;;
52274;SDS011;38228;50.940;4.024;2023-04-24T13:19:30;3.70;;;1.38;;
52274;SDS011;38228;50.940;4.024;2023-04-24T13:22:10;8.88;;;2.80;;
52274;SDS011;38228;50.940;4.024;2023-04-24T13:24:37;4.95;;;2.47;;
52274;SDS011;38228;50.940;4.024;2023-04-24T13:27:07;7.95;;;2.10;;
52274;SDS011;38228;50.940;4.024;2023-04-24T13:29:34;4.88;;;1.90;;
52274;SDS011;38228;50.940;4.024;2023-04-24T13:32:00;5.32;;;2.15;;
52274;SDS011;38228;50.940;4.024;2023-04-24T13:34:26;5.30;;;1.48;;
52274;SDS011;38228;50.940;4.024;2023-04-24T13:36:52;4.95;;;1.60;;
52274;SDS011;38228;50.940;4.024;2023-04-24T13:39:20;5.05;;;1.90;;
52274;SDS011;38228;50.940;4.024;2023-04-24T13:41:46;8.85;;;3.47;;
52274;SDS011;38228;50.940;4.024;2023-04-24T13:44:13;6.43;;;1.80;;
52274;SDS011;38228;50.940;4.024;2023-04-24T13:46:43;5.80;;;1.73;;
52274;SDS011;38228;50.940;4.024;2023-04-24T13:49:11;6.53;;;2.55;;
52274;SDS011;38228;50.940;4.024;2023-04-24T13:51:38;5.13;;;1.73;;
52274;SDS011;38228;50.940;4.024;2023-04-24T13:54:05;6.40;;;2.15;;
52274;SDS011;38228;50.940;4.024;2023-04-24T13:56:31;6.03;;;1.63;;
52274;SDS011;38228;50.940;4.024;2023-04-24T13:58:57;5.40;;;1.58;;
52274;SDS011;38228;50.940;4.024;2023-04-24T14:01:23;3.67;;;1.30;;
52274;SDS011;38228;50.940;4.024;2023-04-24T14:03:52;6.03;;;1.60;;
52274;SDS011;38228;50.940;4.024;2023-04-24T14:06:20;5.15;;;1.30;;
52274;SDS011;38228;50.940;4.024;2023-04-24T14:08:48;2.60;;;1.20;;
52274;SDS011;38228;50.940;4.024;2023-04-24T14:11:15;4.85;;;1.55;;
52274;SDS011;38228;50.940;4.024;2023-04-24T14:13:41;4.55;;;1.45;;
52274;SDS011;38228;50.940;4.024;2023-04-24T14:16:08;5.22;;;1.40;;
52274;SDS011;38228;50.940;4.024;2023-04-24T14:18:35;3.55;;;1.25;;
52274;SDS011;38228;50.940;4.024;2023-04-24T14:21:01;3.88;;;1.10;;
52274;SDS011;38228;50.940;4.024;2023-04-24T14:23:28;4.70;;;1.05;;
52274;SDS011;38228;50.940;4.024;2023-04-24T14:25:53;3.97;;;1.20;;
52274;SDS011;38228;50.940;4.024;2023-04-24T14:28:19;6.22;;;1.27;;
52274;SDS011;38228;50.940;4.024;2023-04-24T14:30:46;2.92;;;1.00;;
52274;SDS011;38228;50.940;4.024;2023-04-24T14:33:13;6.57;;;1.35;;
52274;SDS011;38228;50.940;4.024;2023-04-24T14:35:39;6.45;;;1.67;;
52274;SDS011;38228;50.940;4.024;2023-04-24T14:38:07;3.90;;;1.35;;
52274;SDS011;38228;50.940;4.024;2023-04-24T14:40:33;4.88;;;1.20;;
52274;SDS011;38228;50.940;4.024;2023-04-24T14:43:00;4.88;;;1.58;;
52274;SDS011;38228;50.940;4.024;2023-04-24T14:45:26;6.13;;;1.42;;
52274;SDS011;38228;50.940;4.024;2023-04-24T14:47:52;3.60;;;1.23;;
52274;SDS011;38228;50.940;4.024;2023-04-24T14:50:18;9.10;;;1.35;;